sensor_id;sensor_type;location;lat;lon;timestamp;P1;durP1;ratioP1;P2;durP2;ratioP2
30149;SDS011;16962;48.646;9.026;2022-11-20T00:06:41;9.20;;;6.70;;
30149;SDS011;16962;48.646;9.026;2022-11-20T00:13:47;11.25;;;6.55;;
30149;SDS011;16962;48.646;9.026;2022-11-20T00:25:14;10.27;;;5.78;;
30149;SDS011;16962;48.646;9.026;2022-11-20T00:28:34;7.53;;;5.50;;
30149;SDS011;16962;48.646;9.026;2022-11-20T00:32:14;10.20;;;5.75;;
30149;SDS011;16962;48.646;9.026;2022-11-20T00:38:33;7.03;;;5.57;;
30149;SDS011;16962;48.646;9.026;2022-11-20T00:42:13;10.65;;;5.47;;
30149;SDS011;16962;48.646;9.026;2022-11-20T01:01:01;7.55;;;5.32;;
30149;SDS011;16962;48.646;9.026;2022-11-20T01:11:17;6.82;;;4.70;;
30149;SDS011;16962;48.646;9.026;2022-11-20T01:14:28;8.30;;;5.43;;
30149;SDS011;16962;48.646;9.026;2022-11-20T01:21:18;10.32;;;5.38;;
30149;SDS011;16962;48.646;9.026;2022-11-20T01:56:35;15.25;;;8.27;;
30149;SDS011;16962;48.646;9.026;2022-11-20T02:00:53;13.10;;;8.68;;
30149;SDS011;16962;48.646;9.026;2022-11-20T02:04:35;13.80;;;8.98;;
30149;SDS011;16962;48.646;9.026;2022-11-20T02:07:50;15.55;;;9.25;;
30149;SDS011;16962;48.646;9.026;2022-11-20T02:13:50;16.08;;;10.10;;
30149;SDS011;16962;48.646;9.026;2022-11-20T02:46:22;20.50;;;12.55;;
30149;SDS011;16962;48.646;9.026;2022-11-20T02:49:30;16.27;;;12.40;;
30149;SDS011;16962;48.646;9.026;2022-11-20T02:53:26;20.52;;;12.57;;
30149;SDS011;16962;48.646;9.026;2022-11-20T04:10:11;16.77;;;11.77;;
30149;SDS011;16962;48.646;9.026;2022-11-20T04:26:00;15.63;;;10.27;;
30149;SDS011;16962;48.646;9.026;2022-11-20T04:37:52;16.83;;;9.02;;
30149;SDS011;16962;48.646;9.026;2022-11-20T04:48:39;15.00;;;8.65;;
30149;SDS011;16962;48.646;9.026;2022-11-20T05:01:02;10.77;;;7.03;;
30149;SDS011;16962;48.646;9.026;2022-11-20T05:12:24;11.50;;;7.28;;
30149;SDS011;16962;48.646;9.026;2022-11-20T05:30:09;12.75;;;6.63;;
30149;SDS011;16962;48.646;9.026;2022-11-20T05:33:58;9.15;;;6.82;;
30149;SDS011;16962;48.646;9.026;2022-11-20T05:37:18;14.52;;;6.50;;
30149;SDS011;16962;48.646;9.026;2022-11-20T05:40:11;8.35;;;6.50;;
30149;SDS011;16962;48.646;9.026;2022-11-20T05:55:34;9.90;;;7.18;;
30149;SDS011;16962;48.646;9.026;2022-11-20T05:58:35;10.32;;;7.28;;
30149;SDS011;16962;48.646;9.026;2022-11-20T06:02:13;9.63;;;6.25;;
30149;SDS011;16962;48.646;9.026;2022-11-20T06:10:30;8.02;;;6.32;;
30149;SDS011;16962;48.646;9.026;2022-11-20T06:23:49;8.82;;;6.07;;
30149;SDS011;16962;48.646;9.026;2022-11-20T06:30:46;9.93;;;6.20;;
30149;SDS011;16962;48.646;9.026;2022-11-20T06:33:54;8.95;;;7.20;;
30149;SDS011;16962;48.646;9.026;2022-11-20T06:36:41;8.95;;;6.05;;
30149;SDS011;16962;48.646;9.026;2022-11-20T06:39:29;10.07;;;5.97;;
30149;SDS011;16962;48.646;9.026;2022-11-20T06:42:16;7.90;;;6.45;;
30149;SDS011;16962;48.646;9.026;2022-11-20T06:45:04;8.38;;;6.28;;
30149;SDS011;16962;48.646;9.026;2022-11-20T06:47:54;9.63;;;6.03;;
30149;SDS011;16962;48.646;9.026;2022-11-20T06:50:44;9.43;;;6.38;;
30149;SDS011;16962;48.646;9.026;2022-11-20T06:53:31;10.30;;;6.93;;
30149;SDS011;16962;48.646;9.026;2022-11-20T06:56:18;9.68;;;6.70;;
30149;SDS011;16962;48.646;9.026;2022-11-20T06:59:06;8.70;;;5.80;;
30149;SDS011;16962;48.646;9.026;2022-11-20T07:01:55;11.50;;;6.65;;
30149;SDS011;16962;48.646;9.026;2022-11-20T07:04:44;8.18;;;5.97;;
30149;SDS011;16962;48.646;9.026;2022-11-20T07:11:03;9.55;;;6.13;;
30149;SDS011;16962;48.646;9.026;2022-11-20T07:23:13;6.70;;;5.50;;
30149;SDS011;16962;48.646;9.026;2022-11-20T07:26:04;10.38;;;6.97;;
30149;SDS011;16962;48.646;9.026;2022-11-20T07:28:53;15.75;;;6.45;;
30149;SDS011;16962;48.646;9.026;2022-11-20T07:31:40;10.75;;;6.63;;
30149;SDS011;16962;48.646;9.026;2022-11-20T07:34:27;8.80;;;6.50;;
30149;SDS011;16962;48.646;9.026;2022-11-20T07:37:15;10.20;;;6.22;;
30149;SDS011;16962;48.646;9.026;2022-11-20T07:40:04;8.07;;;5.93;;
30149;SDS011;16962;48.646;9.026;2022-11-20T07:42:53;6.65;;;5.35;;
30149;SDS011;16962;48.646;9.026;2022-11-20T07:45:41;9.98;;;5.97;;
30149;SDS011;16962;48.646;9.026;2022-11-20T07:48:28;8.90;;;6.72;;
30149;SDS011;16962;48.646;9.026;2022-11-20T07:51:15;8.05;;;5.88;;
30149;SDS011;16962;48.646;9.026;2022-11-20T07:54:05;9.07;;;5.90;;
30149;SDS011;16962;48.646;9.026;2022-11-20T07:56:52;7.57;;;5.32;;
30149;SDS011;16962;48.646;9.026;2022-11-20T07:59:40;11.25;;;6.38;;
30149;SDS011;16962;48.646;9.026;2022-11-20T08:02:27;9.10;;;5.72;;
30149;SDS011;16962;48.646;9.026;2022-11-20T08:05:15;7.63;;;5.15;;
30149;SDS011;16962;48.646;9.026;2022-11-20T08:08:02;6.68;;;5.60;;
30149;SDS011;16962;48.646;9.026;2022-11-20T08:10:49;10.02;;;5.93;;
30149;SDS011;16962;48.646;9.026;2022-11-20T08:13:36;8.32;;;5.90;;
30149;SDS011;16962;48.646;9.026;2022-11-20T08:16:46;8.63;;;5.57;;
30149;SDS011;16962;48.646;9.026;2022-11-20T08:19:36;7.18;;;5.63;;
30149;SDS011;16962;48.646;9.026;2022-11-20T08:22:25;8.43;;;4.82;;
30149;SDS011;16962;48.646;9.026;2022-11-20T08:25:12;14.02;;;5.50;;
30149;SDS011;16962;48.646;9.026;2022-11-20T08:28:00;6.47;;;5.40;;
30149;SDS011;16962;48.646;9.026;2022-11-20T08:31:04;7.50;;;5.80;;
30149;SDS011;16962;48.646;9.026;2022-11-20T08:33:51;6.20;;;4.80;;
30149;SDS011;16962;48.646;9.026;2022-11-20T08:36:38;6.57;;;5.00;;
30149;SDS011;16962;48.646;9.026;2022-11-20T08:39:26;5.35;;;4.70;;
30149;SDS011;16962;48.646;9.026;2022-11-20T08:42:13;6.40;;;5.38;;
30149;SDS011;16962;48.646;9.026;2022-11-20T08:45:00;10.80;;;4.97;;
30149;SDS011;16962;48.646;9.026;2022-11-20T08:47:49;7.63;;;6.10;;
30149;SDS011;16962;48.646;9.026;2022-11-20T08:50:36;19.55;;;12.45;;
30149;SDS011;16962;48.646;9.026;2022-11-20T08:53:27;19.48;;;13.38;;
30149;SDS011;16962;48.646;9.026;2022-11-20T08:56:14;16.58;;;9.50;;
30149;SDS011;16962;48.646;9.026;2022-11-20T08:59:03;11.00;;;7.22;;
30149;SDS011;16962;48.646;9.026;2022-11-20T09:02:10;29.35;;;20.25;;
30149;SDS011;16962;48.646;9.026;2022-11-20T09:04:58;11.55;;;5.45;;
30149;SDS011;16962;48.646;9.026;2022-11-20T09:07:45;24.33;;;10.90;;
30149;SDS011;16962;48.646;9.026;2022-11-20T09:10:32;20.85;;;9.52;;
30149;SDS011;16962;48.646;9.026;2022-11-20T09:13:20;6.97;;;4.47;;
30149;SDS011;16962;48.646;9.026;2022-11-20T09:16:09;9.57;;;5.07;;
30149;SDS011;16962;48.646;9.026;2022-11-20T09:18:59;6.13;;;3.03;;
30149;SDS011;16962;48.646;9.026;2022-11-20T09:22:06;3.67;;;2.35;;
30149;SDS011;16962;48.646;9.026;2022-11-20T09:24:55;2.50;;;2.20;;
30149;SDS011;16962;48.646;9.026;2022-11-20T09:27:45;1.90;;;1.80;;
30149;SDS011;16962;48.646;9.026;2022-11-20T09:30:32;2.00;;;1.88;;
30149;SDS011;16962;48.646;9.026;2022-11-20T09:33:22;1.85;;;1.75;;
30149;SDS011;16962;48.646;9.026;2022-11-20T09:36:09;2.40;;;2.20;;
30149;SDS011;16962;48.646;9.026;2022-11-20T09:38:57;2.70;;;2.38;;
30149;SDS011;16962;48.646;9.026;2022-11-20T09:54:21;3.20;;;1.80;;
30149;SDS011;16962;48.646;9.026;2022-11-20T09:57:23;3.17;;;2.70;;
30149;SDS011;16962;48.646;9.026;2022-11-20T10:00:18;2.92;;;2.35;;
30149;SDS011;16962;48.646;9.026;2022-11-20T10:03:14;4.80;;;2.17;;
30149;SDS011;16962;48.646;9.026;2022-11-20T10:06:32;2.17;;;1.90;;
30149;SDS011;16962;48.646;9.026;2022-11-20T10:10:13;2.72;;;2.05;;
30149;SDS011;16962;48.646;9.026;2022-11-20T10:22:40;1.75;;;1.65;;
30149;SDS011;16962;48.646;9.026;2022-11-20T10:31:51;1.90;;;1.80;;
30149;SDS011;16962;48.646;9.026;2022-11-20T10:41:37;3.28;;;2.17;;
30149;SDS011;16962;48.646;9.026;2022-11-20T10:44:27;2.40;;;2.20;;
30149;SDS011;16962;48.646;9.026;2022-11-20T10:47:41;3.65;;;1.98;;
30149;SDS011;16962;48.646;9.026;2022-11-20T10:50:29;2.85;;;2.40;;
30149;SDS011;16962;48.646;9.026;2022-11-20T10:53:21;2.97;;;2.22;;
30149;SDS011;16962;48.646;9.026;2022-11-20T10:56:30;3.67;;;2.03;;
30149;SDS011;16962;48.646;9.026;2022-11-20T11:02:43;2.90;;;1.40;;
30149;SDS011;16962;48.646;9.026;2022-11-20T11:05:44;2.40;;;1.60;;
30149;SDS011;16962;48.646;9.026;2022-11-20T11:08:41;2.67;;;1.95;;
30149;SDS011;16962;48.646;9.026;2022-11-20T11:11:33;2.90;;;1.77;;
30149;SDS011;16962;48.646;9.026;2022-11-20T14:58:43;1.77;;;1.67;;
30149;SDS011;16962;48.646;9.026;2022-11-20T15:03:14;3.08;;;2.28;;
30149;SDS011;16962;48.646;9.026;2022-11-20T17:10:19;6.57;;;3.55;;
30149;SDS011;16962;48.646;9.026;2022-11-20T17:41:42;9.50;;;5.38;;
30149;SDS011;16962;48.646;9.026;2022-11-20T17:44:30;17.10;;;9.65;;
30149;SDS011;16962;48.646;9.026;2022-11-20T17:47:17;7.25;;;3.95;;
30149;SDS011;16962;48.646;9.026;2022-11-20T17:50:05;4.72;;;3.42;;
30149;SDS011;16962;48.646;9.026;2022-11-20T17:52:54;6.13;;;3.50;;
30149;SDS011;16962;48.646;9.026;2022-11-20T17:55:43;5.20;;;2.95;;
30149;SDS011;16962;48.646;9.026;2022-11-20T17:58:48;5.90;;;4.07;;
30149;SDS011;16962;48.646;9.026;2022-11-20T18:01:36;4.88;;;3.03;;
30149;SDS011;16962;48.646;9.026;2022-11-20T18:04:25;8.45;;;4.10;;
30149;SDS011;16962;48.646;9.026;2022-11-20T18:07:12;7.05;;;3.60;;
30149;SDS011;16962;48.646;9.026;2022-11-20T18:10:03;5.72;;;3.75;;
30149;SDS011;16962;48.646;9.026;2022-11-20T18:12:53;4.53;;;2.83;;
30149;SDS011;16962;48.646;9.026;2022-11-20T18:15:42;2.90;;;2.47;;
30149;SDS011;16962;48.646;9.026;2022-11-20T18:18:29;4.57;;;2.65;;
30149;SDS011;16962;48.646;9.026;2022-11-20T18:21:17;3.33;;;2.15;;
30149;SDS011;16962;48.646;9.026;2022-11-20T18:24:05;7.00;;;2.42;;
30149;SDS011;16962;48.646;9.026;2022-11-20T18:26:53;4.63;;;2.50;;
30149;SDS011;16962;48.646;9.026;2022-11-20T18:29:41;6.32;;;2.72;;
30149;SDS011;16962;48.646;9.026;2022-11-20T18:32:33;7.93;;;5.25;;
30149;SDS011;16962;48.646;9.026;2022-11-20T18:35:21;5.18;;;3.75;;
30149;SDS011;16962;48.646;9.026;2022-11-20T18:38:09;4.35;;;3.25;;
30149;SDS011;16962;48.646;9.026;2022-11-20T18:40:57;3.90;;;2.42;;
30149;SDS011;16962;48.646;9.026;2022-11-20T18:43:50;8.48;;;4.55;;
30149;SDS011;16962;48.646;9.026;2022-11-20T18:46:56;7.57;;;3.88;;
30149;SDS011;16962;48.646;9.026;2022-11-20T18:49:43;8.65;;;3.97;;
30149;SDS011;16962;48.646;9.026;2022-11-20T18:52:40;6.60;;;4.43;;
30149;SDS011;16962;48.646;9.026;2022-11-20T18:55:30;6.10;;;3.03;;
30149;SDS011;16962;48.646;9.026;2022-11-20T18:58:17;3.92;;;3.08;;
30149;SDS011;16962;48.646;9.026;2022-11-20T19:01:06;7.03;;;3.95;;
30149;SDS011;16962;48.646;9.026;2022-11-20T19:03:54;7.43;;;3.22;;
30149;SDS011;16962;48.646;9.026;2022-11-20T19:06:44;4.43;;;2.95;;
30149;SDS011;16962;48.646;9.026;2022-11-20T19:09:39;9.27;;;2.25;;
30149;SDS011;16962;48.646;9.026;2022-11-20T19:12:28;1.90;;;1.67;;
30149;SDS011;16962;48.646;9.026;2022-11-20T19:15:18;4.10;;;2.03;;
30149;SDS011;16962;48.646;9.026;2022-11-20T19:18:06;4.35;;;2.03;;
30149;SDS011;16962;48.646;9.026;2022-11-20T19:20:53;2.65;;;1.38;;
30149;SDS011;16962;48.646;9.026;2022-11-20T19:23:41;2.90;;;2.25;;
30149;SDS011;16962;48.646;9.026;2022-11-20T19:26:32;1.23;;;1.10;;
30149;SDS011;16962;48.646;9.026;2022-11-20T19:29:22;2.78;;;1.70;;
30149;SDS011;16962;48.646;9.026;2022-11-20T19:32:11;2.05;;;1.70;;
30149;SDS011;16962;48.646;9.026;2022-11-20T19:34:58;2.47;;;1.58;;
30149;SDS011;16962;48.646;9.026;2022-11-20T19:37:47;1.67;;;1.27;;
30149;SDS011;16962;48.646;9.026;2022-11-20T19:40:35;2.88;;;2.50;;
30149;SDS011;16962;48.646;9.026;2022-11-20T19:43:22;2.55;;;1.88;;
30149;SDS011;16962;48.646;9.026;2022-11-20T19:46:10;2.33;;;1.80;;
30149;SDS011;16962;48.646;9.026;2022-11-20T19:48:58;3.17;;;2.00;;
30149;SDS011;16962;48.646;9.026;2022-11-20T19:51:48;2.67;;;1.58;;
30149;SDS011;16962;48.646;9.026;2022-11-20T19:54:37;2.15;;;1.80;;
30149;SDS011;16962;48.646;9.026;2022-11-20T19:57:24;2.58;;;1.70;;
30149;SDS011;16962;48.646;9.026;2022-11-20T20:00:15;1.95;;;1.75;;
30149;SDS011;16962;48.646;9.026;2022-11-20T20:03:12;2.22;;;1.70;;
30149;SDS011;16962;48.646;9.026;2022-11-20T20:06:03;2.53;;;1.67;;
30149;SDS011;16962;48.646;9.026;2022-11-20T20:08:56;2.03;;;1.63;;
30149;SDS011;16962;48.646;9.026;2022-11-20T20:11:50;1.75;;;1.65;;
30149;SDS011;16962;48.646;9.026;2022-11-20T20:14:37;3.05;;;1.90;;
30149;SDS011;16962;48.646;9.026;2022-11-20T20:17:24;2.88;;;1.73;;
30149;SDS011;16962;48.646;9.026;2022-11-20T20:20:14;2.65;;;1.40;;
30149;SDS011;16962;48.646;9.026;2022-11-20T20:23:02;1.75;;;1.65;;
30149;SDS011;16962;48.646;9.026;2022-11-20T20:25:53;2.75;;;2.35;;
30149;SDS011;16962;48.646;9.026;2022-11-20T20:28:45;1.80;;;1.50;;
30149;SDS011;16962;48.646;9.026;2022-11-20T20:31:32;4.18;;;2.40;;
30149;SDS011;16962;48.646;9.026;2022-11-20T20:34:22;1.77;;;1.50;;
30149;SDS011;16962;48.646;9.026;2022-11-20T20:37:09;1.85;;;1.70;;
30149;SDS011;16962;48.646;9.026;2022-11-20T20:39:59;2.20;;;1.88;;
30149;SDS011;16962;48.646;9.026;2022-11-20T20:42:47;2.47;;;1.70;;
30149;SDS011;16962;48.646;9.026;2022-11-20T20:45:34;1.75;;;1.33;;
30149;SDS011;16962;48.646;9.026;2022-11-20T20:48:23;1.80;;;1.70;;
30149;SDS011;16962;48.646;9.026;2022-11-20T20:51:13;1.70;;;1.30;;
30149;SDS011;16962;48.646;9.026;2022-11-20T20:54:03;3.42;;;1.35;;
30149;SDS011;16962;48.646;9.026;2022-11-20T20:56:51;1.75;;;1.30;;
30149;SDS011;16962;48.646;9.026;2022-11-20T20:59:38;2.10;;;1.60;;
30149;SDS011;16962;48.646;9.026;2022-11-20T21:02:28;3.60;;;1.60;;
30149;SDS011;16962;48.646;9.026;2022-11-20T21:05:20;1.70;;;1.55;;
30149;SDS011;16962;48.646;9.026;2022-11-20T21:08:07;2.27;;;1.80;;
30149;SDS011;16962;48.646;9.026;2022-11-20T21:11:12;1.40;;;1.30;;
30149;SDS011;16962;48.646;9.026;2022-11-20T21:16:48;1.83;;;1.50;;
30149;SDS011;16962;48.646;9.026;2022-11-20T21:19:39;2.35;;;1.65;;
30149;SDS011;16962;48.646;9.026;2022-11-20T21:22:27;1.40;;;1.20;;
30149;SDS011;16962;48.646;9.026;2022-11-20T21:25:22;1.33;;;1.23;;
30149;SDS011;16962;48.646;9.026;2022-11-20T21:28:11;1.85;;;1.50;;
30149;SDS011;16962;48.646;9.026;2022-11-20T21:31:04;1.80;;;1.42;;
30149;SDS011;16962;48.646;9.026;2022-11-20T21:33:53;2.75;;;1.50;;
30149;SDS011;16962;48.646;9.026;2022-11-20T21:36:43;2.78;;;2.10;;
30149;SDS011;16962;48.646;9.026;2022-11-20T21:39:34;3.03;;;2.03;;
30149;SDS011;16962;48.646;9.026;2022-11-20T21:42:36;1.85;;;1.60;;
30149;SDS011;16962;48.646;9.026;2022-11-20T21:45:23;5.22;;;1.90;;
30149;SDS011;16962;48.646;9.026;2022-11-20T21:48:10;1.85;;;1.67;;
30149;SDS011;16962;48.646;9.026;2022-11-20T21:51:01;2.35;;;1.80;;
30149;SDS011;16962;48.646;9.026;2022-11-20T21:53:53;3.60;;;2.08;;
30149;SDS011;16962;48.646;9.026;2022-11-20T21:56:42;1.70;;;1.60;;
30149;SDS011;16962;48.646;9.026;2022-11-20T21:59:32;3.25;;;1.67;;
30149;SDS011;16962;48.646;9.026;2022-11-20T22:02:19;3.20;;;1.73;;
30149;SDS011;16962;48.646;9.026;2022-11-20T22:05:06;1.92;;;1.50;;
30149;SDS011;16962;48.646;9.026;2022-11-20T22:07:54;2.25;;;1.77;;
30149;SDS011;16962;48.646;9.026;2022-11-20T22:10:41;2.80;;;1.90;;
30149;SDS011;16962;48.646;9.026;2022-11-20T22:13:28;2.03;;;1.80;;
30149;SDS011;16962;48.646;9.026;2022-11-20T22:16:35;2.17;;;1.92;;
30149;SDS011;16962;48.646;9.026;2022-11-20T22:19:23;1.70;;;1.60;;
30149;SDS011;16962;48.646;9.026;2022-11-20T22:22:10;2.78;;;2.38;;
30149;SDS011;16962;48.646;9.026;2022-11-20T22:24:58;2.33;;;2.13;;
30149;SDS011;16962;48.646;9.026;2022-11-20T22:27:47;4.47;;;2.25;;
30149;SDS011;16962;48.646;9.026;2022-11-20T22:30:36;4.78;;;2.83;;
30149;SDS011;16962;48.646;9.026;2022-11-20T22:33:25;4.43;;;2.40;;
30149;SDS011;16962;48.646;9.026;2022-11-20T22:36:17;3.05;;;2.28;;
30149;SDS011;16962;48.646;9.026;2022-11-20T22:39:06;6.15;;;3.60;;
30149;SDS011;16962;48.646;9.026;2022-11-20T22:41:53;3.15;;;1.77;;
30149;SDS011;16962;48.646;9.026;2022-11-20T22:44:40;7.72;;;2.97;;
30149;SDS011;16962;48.646;9.026;2022-11-20T22:47:27;3.63;;;2.38;;
30149;SDS011;16962;48.646;9.026;2022-11-20T22:50:15;1.65;;;1.55;;
30149;SDS011;16962;48.646;9.026;2022-11-20T22:53:02;1.35;;;1.20;;
30149;SDS011;16962;48.646;9.026;2022-11-20T22:55:50;1.65;;;1.30;;
30149;SDS011;16962;48.646;9.026;2022-11-20T22:58:40;2.95;;;1.40;;
30149;SDS011;16962;48.646;9.026;2022-11-20T23:01:33;5.55;;;1.30;;
30149;SDS011;16962;48.646;9.026;2022-11-20T23:04:22;1.17;;;1.08;;
30149;SDS011;16962;48.646;9.026;2022-11-20T23:07:09;1.08;;;1.08;;
30149;SDS011;16962;48.646;9.026;2022-11-20T23:09:56;1.40;;;1.30;;
30149;SDS011;16962;48.646;9.026;2022-11-20T23:12:44;3.50;;;1.98;;
30149;SDS011;16962;48.646;9.026;2022-11-20T23:15:31;3.15;;;1.50;;
30149;SDS011;16962;48.646;9.026;2022-11-20T23:18:20;2.75;;;1.38;;
30149;SDS011;16962;48.646;9.026;2022-11-20T23:21:16;1.73;;;1.38;;
30149;SDS011;16962;48.646;9.026;2022-11-20T23:24:05;1.88;;;1.70;;
30149;SDS011;16962;48.646;9.026;2022-11-20T23:26:54;2.20;;;1.63;;
30149;SDS011;16962;48.646;9.026;2022-11-20T23:29:45;4.23;;;1.83;;
30149;SDS011;16962;48.646;9.026;2022-11-20T23:32:33;2.92;;;1.70;;
30149;SDS011;16962;48.646;9.026;2022-11-20T23:35:21;2.53;;;1.63;;
30149;SDS011;16962;48.646;9.026;2022-11-20T23:38:08;2.75;;;1.80;;
30149;SDS011;16962;48.646;9.026;2022-11-20T23:40:58;5.03;;;1.83;;
30149;SDS011;16962;48.646;9.026;2022-11-20T23:43:46;5.50;;;1.50;;
30149;SDS011;16962;48.646;9.026;2022-11-20T23:46:33;3.60;;;1.63;;
30149;SDS011;16962;48.646;9.026;2022-11-20T23:49:20;3.47;;;1.55;;
30149;SDS011;16962;48.646;9.026;2022-11-20T23:52:07;2.95;;;1.42;;
30149;SDS011;16962;48.646;9.026;2022-11-20T23:54:54;6.05;;;2.30;;
30149;SDS011;16962;48.646;9.026;2022-11-20T23:57:41;4.45;;;1.10;;
